| time (UTC) | temp F | wind direction | speed knots | gust knots | rain 1hr in | rain 24hr in | rain mn in | humidity % | barometer mb |
| 20260509022457 | 58 | 288 | 0.0 | 0.0 | 0.00 | 0.00 | 0.00 | 57 | 1010.3 |
| 20260509021954 | 59 | 288 | 0.0 | 0.0 | 0.00 | 0.00 | 0.00 | 53 | 1010.1 |
| 20260509021451 | 59 | 288 | 0.0 | 0.0 | 0.00 | 0.00 | 0.00 | 52 | 1010.3 |
| 20260509020948 | 59 | 288 | 0.0 | 0.9 | 0.00 | 0.00 | 0.00 | 47 | 1010.3 |
| 20260509020447 | 59 | 285 | 0.0 | 0.9 | 0.00 | 0.00 | 0.00 | 47 | 1010.3 |
| 20260509015943 | 58 | 283 | 0.0 | 0.0 | 0.00 | 0.00 | 0.00 | 49 | 1010.4 |
| 20260509015442 | 58 | 283 | 0.0 | 0.0 | 0.00 | 0.00 | 0.00 | 51 | 1010.3 |
| 20260509014938 | 58 | 283 | 0.0 | 0.0 | 0.00 | 0.00 | 0.00 | 55 | 1010.3 |
| 20260509014435 | 59 | 284 | 0.0 | 0.0 | 0.00 | 0.00 | 0.00 | 51 | 1010.2 |
| 20260509013931 | 59 | 284 | 0.0 | 0.0 | 0.00 | 0.00 | 0.00 | 49 | 1010.4 |
| 20260509013428 | 59 | 283 | 0.0 | 0.0 | 0.00 | 0.00 | 0.00 | 48 | 1010.3 |
| 20260509012924 | 59 | 283 | 0.9 | 0.9 | 0.00 | 0.00 | 0.00 | 48 | 1010.3 |
| 20260509012421 | 58 | 260 | 0.0 | 0.9 | 0.00 | 0.00 | 0.00 | 52 | 1010.2 |
| 20260509011918 | 58 | 260 | 0.0 | 0.0 | 0.00 | 0.00 | 0.00 | 51 | 1010.1 |
| 20260509011415 | 59 | 260 | 0.0 | 0.0 | 0.00 | 0.00 | 0.00 | 51 | 1010.0 |
| 20260509010913 | 59 | 260 | 0.0 | 0.0 | 0.00 | 0.00 | 0.00 | 49 | 1010.0 |
| 20260509010410 | 60 | 260 | 0.0 | 0.0 | 0.00 | 0.00 | 0.00 | 50 | 1009.9 |
| 20260509005907 | 60 | 261 | 0.0 | 0.0 | 0.00 | 0.00 | 0.00 | 47 | 1010.0 |
| 20260509005405 | 61 | 260 | 0.9 | 0.9 | 0.00 | 0.00 | 0.00 | 48 | 1009.9 |
| 20260509004905 | 62 | 258 | 0.0 | 0.9 | 0.00 | 0.00 | 0.00 | 47 | 1010.4 |
| 20260509004402 | 63 | 287 | 0.9 | 1.7 | 0.00 | 0.00 | 0.00 | 47 | 1010.0 |
| 20260509003900 | 63 | 260 | 0.9 | 1.7 | 0.00 | 0.00 | 0.00 | 43 | 1010.0 |
| 20260509003357 | 64 | 272 | 0.9 | 1.7 | 0.00 | 0.00 | 0.00 | 43 | 1010.2 |
| 20260509002854 | 64 | 294 | 1.7 | 1.7 | 0.00 | 0.00 | 0.00 | 42 | 1010.1 |
| 20260509002352 | 64 | 267 | 1.7 | 2.6 | 0.00 | 0.00 | 0.00 | 43 | 1010.1 |
| 20260509001849 | 65 | 279 | 3.5 | 2.6 | 0.00 | 0.00 | 0.00 | 40 | 1010.3 |
| 20260509001345 | 66 | 289 | 2.6 | 3.5 | 0.00 | 0.00 | 0.00 | 39 | 1010.2 |
| 20260509000843 | 66 | 270 | 1.7 | 2.6 | 0.00 | 0.00 | 0.00 | 38 | 1010.4 |
| 20260509000340 | 67 | 266 | 1.7 | 1.7 | 0.00 | 0.00 | 0.00 | 39 | 1010.4 |
| 20260508235836 | 67 | 298 | 1.7 | 2.6 | 0.00 | 0.00 | 0.00 | 40 | 1010.5 |
| 20260508235333 | 67 | 262 | 3.5 | 5.2 | 0.00 | 0.00 | 0.00 | 37 | 1010.5 |
| 20260508234831 | 67 | 284 | 3.5 | 5.2 | 0.00 | 0.00 | 0.00 | 37 | 1010.4 |
| 20260508234327 | 67 | 293 | 3.5 | 5.2 | 0.00 | 0.00 | 0.00 | 38 | 1010.3 |
| 20260508233825 | 67 | 312 | 3.5 | 6.1 | 0.00 | 0.00 | 0.00 | 38 | 1010.3 |
| 20260508233324 | 67 | 284 | 1.7 | 6.1 | 0.00 | 0.00 | 0.00 | 37 | 1010.4 |
| 20260508232821 | 68 | 298 | 3.5 | 6.1 | 0.00 | 0.00 | 0.00 | 36 | 1010.5 |
| 20260508232317 | 68 | 25 | 3.5 | 6.1 | 0.00 | 0.00 | 0.00 | 36 | 1010.8 |
| 20260508231816 | 69 | 311 | 3.5 | 5.2 | 0.00 | 0.00 | 0.00 | 35 | 1010.7 |
| 20260508231311 | 69 | 280 | 2.6 | 6.1 | 0.00 | 0.00 | 0.00 | 37 | 1010.8 |
| 20260508230808 | 68 | 291 | 8.7 | 12.2 | 0.00 | 0.00 | 0.00 | 33 | 1010.4 |
| 20260508230305 | 68 | 276 | 3.5 | 3.5 | 0.00 | 0.00 | 0.00 | 35 | 1010.8 |
| 20260508225803 | 69 | 281 | 5.2 | 11.3 | 0.00 | 0.00 | 0.00 | 35 | 1010.7 |
| 20260508225259 | 69 | 306 | 5.2 | 6.1 | 0.00 | 0.00 | 0.00 | 34 | 1010.7 |
| 20260508224757 | 70 | 273 | 5.2 | 7.0 | 0.00 | 0.00 | 0.00 | 31 | 1010.5 |
| 20260508224254 | 70 | 243 | 1.7 | 5.2 | 0.00 | 0.00 | 0.00 | 38 | 1010.7 |
| 20260508223752 | 70 | 279 | 2.6 | 7.0 | 0.00 | 0.00 | 0.00 | 36 | 1010.8 |
| 20260508223249 | 70 | 292 | 2.6 | 7.8 | 0.00 | 0.00 | 0.00 | 37 | 1010.5 |
| 20260508222746 | 70 | 314 | 6.1 | 9.6 | 0.00 | 0.00 | 0.00 | 31 | 1010.5 |
| 20260508222243 | 71 | 292 | 4.3 | 8.7 | 0.00 | 0.00 | 0.00 | 35 | 1010.3 |
| 20260508221740 | 71 | 286 | 2.6 | 8.7 | 0.00 | 0.00 | 0.00 | 35 | 1010.5 |
| 20260508221236 | 71 | 273 | 3.5 | 7.8 | 0.00 | 0.00 | 0.00 | 33 | 1010.4 |
| 20260508220732 | 70 | 312 | 3.5 | 6.1 | 0.00 | 0.00 | 0.00 | 33 | 1010.5 |
| 20260508220229 | 71 | 246 | 3.5 | 6.1 | 0.00 | 0.00 | 0.00 | 38 | 1010.7 |
| 20260508215725 | 71 | 299 | 6.1 | 8.7 | 0.00 | 0.00 | 0.00 | 34 | 1010.6 |
| 20260508215221 | 71 | 269 | 3.5 | 6.1 | 0.00 | 0.00 | 0.00 | 34 | 1010.6 |
| 20260508214719 | 71 | 300 | 2.6 | 9.6 | 0.00 | 0.00 | 0.00 | 35 | 1010.6 |
| 20260508214216 | 71 | 298 | 4.3 | 7.8 | 0.00 | 0.00 | 0.00 | 32 | 1010.6 |
| 20260508213712 | 71 | 308 | 2.6 | 5.2 | 0.00 | 0.00 | 0.00 | 37 | 1010.3 |
| 20260508213209 | 71 | 299 | 2.6 | 7.8 | 0.00 | 0.00 | 0.00 | 38 | 1010.4 |
| 20260508212706 | 71 | 304 | 3.5 | 9.6 | 0.00 | 0.00 | 0.00 | 37 | 1010.3 |
| 20260508212202 | 71 | 271 | 3.5 | 7.8 | 0.00 | 0.00 | 0.00 | 34 | 1010.4 |
| 20260508211657 | 71 | 267 | 5.2 | 6.1 | 0.00 | 0.00 | 0.00 | 35 | 1010.7 |
| 20260508211154 | 71 | 271 | 3.5 | 8.7 | 0.00 | 0.00 | 0.00 | 34 | 1010.6 |
| 20260508210651 | 71 | 303 | 4.3 | 7.0 | 0.00 | 0.00 | 0.00 | 35 | 1010.6 |
| 20260508210148 | 71 | 303 | 4.3 | 9.6 | 0.00 | 0.00 | 0.00 | 34 | 1011.1 |
| 20260508205645 | 71 | 264 | 3.5 | 11.3 | 0.00 | 0.00 | 0.00 | 36 | 1010.9 |
| 20260508205142 | 72 | 319 | 7.8 | 12.2 | 0.00 | 0.00 | 0.00 | 32 | 1010.9 |
| 20260508204638 | 72 | 278 | 3.5 | 5.2 | 0.00 | 0.00 | 0.00 | 38 | 1011.1 |
| 20260508204134 | 71 | 260 | 4.3 | 7.8 | 0.00 | 0.00 | 0.00 | 34 | 1011.3 |
| 20260508203630 | 72 | 268 | 7.8 | 8.7 | 0.00 | 0.00 | 0.00 | 33 | 1011.2 |
| 20260508203126 | 72 | 297 | 1.7 | 3.5 | 0.00 | 0.00 | 0.00 | 41 | 1011.1 |
| 20260508202623 | 71 | 282 | 5.2 | 7.0 | 0.00 | 0.00 | 0.00 | 32 | 1011.7 |
| 20260508202120 | 71 | 284 | 3.5 | 6.1 | 0.00 | 0.00 | 0.00 | 34 | 1011.8 |
| 20260508201617 | 71 | 295 | 3.5 | 8.7 | 0.00 | 0.00 | 0.00 | 37 | 1011.8 |
| 20260508201113 | 71 | 297 | 2.6 | 6.1 | 0.00 | 0.00 | 0.00 | 39 | 1011.9 |
| 20260508200610 | 71 | 241 | 4.3 | 9.6 | 0.00 | 0.00 | 0.00 | 36 | 1011.8 |
| 20260508200106 | 71 | 263 | 3.5 | 9.6 | 0.00 | 0.00 | 0.00 | 38 | 1011.7 |
| 20260508195603 | 71 | 258 | 4.3 | 5.2 | 0.00 | 0.00 | 0.00 | 38 | 1011.8 |
| 20260508195059 | 71 | 321 | 5.2 | 7.8 | 0.00 | 0.00 | 0.00 | 35 | 1011.8 |
| 20260508194556 | 71 | 266 | 5.2 | 7.8 | 0.00 | 0.00 | 0.00 | 36 | 1011.6 |
| 20260508194054 | 70 | 236 | 6.1 | 7.8 | 0.00 | 0.00 | 0.00 | 36 | 1011.8 |
| 20260508193549 | 71 | 248 | 6.1 | 8.7 | 0.00 | 0.00 | 0.00 | 36 | 1011.7 |
| 20260508193047 | 71 | 290 | 2.6 | 5.2 | 0.00 | 0.00 | 0.00 | 42 | 1011.7 |
| 20260508192543 | 71 | 332 | 2.6 | 6.1 | 0.00 | 0.00 | 0.00 | 43 | 1011.8 |
| 20260508192040 | 70 | 320 | 7.0 | 7.8 | 0.00 | 0.00 | 0.00 | 37 | 1011.9 |
| 20260508191537 | 70 | 278 | 5.2 | 9.6 | 0.00 | 0.00 | 0.00 | 36 | 1012.0 |
| 20260508191033 | 70 | 264 | 5.2 | 6.1 | 0.00 | 0.00 | 0.00 | 39 | 1012.1 |
| 20260508190531 | 70 | 299 | 4.3 | 7.8 | 0.00 | 0.00 | 0.00 | 40 | 1012.2 |
| 20260508190027 | 70 | 314 | 4.3 | 7.0 | 0.00 | 0.00 | 0.00 | 39 | 1012.2 |
| 20260508185525 | 70 | 303 | 7.8 | 9.6 | 0.00 | 0.00 | 0.00 | 39 | 1012.3 |
| 20260508185022 | 69 | 267 | 3.5 | 9.6 | 0.00 | 0.00 | 0.00 | 41 | 1012.4 |
| 20260508184519 | 70 | 280 | 3.5 | 5.2 | 0.00 | 0.00 | 0.00 | 41 | 1012.2 |
| 20260508184016 | 70 | 258 | 6.1 | 9.6 | 0.00 | 0.00 | 0.00 | 35 | 1012.5 |
| 20260508183512 | 69 | 303 | 5.2 | 7.0 | 0.00 | 0.00 | 0.00 | 37 | 1012.5 |
| 20260508183008 | 69 | 263 | 7.0 | 9.6 | 0.00 | 0.00 | 0.00 | 37 | 1012.8 |
| 20260508182505 | 69 | 268 | 2.6 | 6.1 | 0.00 | 0.00 | 0.00 | 37 | 1012.9 |
| 20260508182001 | 69 | 237 | 5.2 | 13.0 | 0.00 | 0.00 | 0.00 | 38 | 1012.9 |
| 20260508181457 | 69 | 317 | 4.3 | 11.3 | 0.00 | 0.00 | 0.00 | 36 | 1013.1 |
| 20260508180955 | 69 | 294 | 2.6 | 8.7 | 0.00 | 0.00 | 0.00 | 42 | 1013.1 |
| 20260508180451 | 69 | 216 | 5.2 | 11.3 | 0.00 | 0.00 | 0.00 | 36 | 1013.2 |
| 20260508175947 | 69 | 248 | 4.3 | 9.6 | 0.00 | 0.00 | 0.00 | 41 | 1013.3 |
| 20260508175444 | 69 | 304 | 3.5 | 7.0 | 0.00 | 0.00 | 0.00 | 39 | 1013.7 |
| 20260508174942 | 69 | 323 | 4.3 | 7.8 | 0.00 | 0.00 | 0.00 | 39 | 1013.6 |
| 20260508174439 | 69 | 281 | 3.5 | 7.0 | 0.00 | 0.00 | 0.00 | 38 | 1013.8 |
| 20260508173936 | 69 | 295 | 5.2 | 8.7 | 0.00 | 0.00 | 0.00 | 39 | 1014.2 |
| 20260508173433 | 69 | 307 | 5.2 | 7.0 | 0.00 | 0.00 | 0.00 | 36 | 1013.8 |
| 20260508172929 | 68 | 267 | 2.6 | 11.3 | 0.00 | 0.00 | 0.00 | 37 | 1014.0 |
| 20260508172426 | 69 | 309 | 4.3 | 7.8 | 0.00 | 0.00 | 0.00 | 38 | 1014.1 |
| 20260508171923 | 68 | 286 | 1.7 | 2.6 | 0.00 | 0.00 | 0.00 | 41 | 1014.2 |
| 20260508171419 | 68 | 289 | 7.0 | 7.8 | 0.00 | 0.00 | 0.00 | 38 | 1014.4 |
| 20260508170916 | 68 | 307 | 3.5 | 6.1 | 0.00 | 0.00 | 0.00 | 40 | 1014.7 |
| 20260508170413 | 68 | 276 | 2.6 | 2.6 | 0.00 | 0.00 | 0.00 | 40 | 1014.4 |
| 20260508165910 | 68 | 269 | 4.3 | 6.1 | 0.00 | 0.00 | 0.00 | 38 | 1014.7 |
| 20260508165408 | 68 | 295 | 4.3 | 7.0 | 0.00 | 0.00 | 0.00 | 39 | 1014.8 |
| 20260508164903 | 68 | 318 | 3.5 | 6.1 | 0.00 | 0.00 | 0.00 | 37 | 1015.0 |
| 20260508164401 | 67 | 255 | 3.5 | 5.2 | 0.00 | 0.00 | 0.00 | 48 | 1014.8 |
| 20260508163858 | 68 | 287 | 3.5 | 6.1 | 0.00 | 0.00 | 0.00 | 44 | 1015.1 |
| 20260508163356 | 67 | 262 | 2.6 | 7.8 | 0.00 | 0.00 | 0.00 | 44 | 1015.2 |
| 20260508162851 | 67 | 243 | 5.2 | 7.0 | 0.00 | 0.00 | 0.00 | 37 | 1015.2 |
| 20260508162349 | 67 | 240 | 3.5 | 7.0 | 0.00 | 0.00 | 0.00 | 44 | 1015.4 |
| 20260508161846 | 67 | 321 | 2.6 | 7.8 | 0.00 | 0.00 | 0.00 | 37 | 1015.1 |
| 20260508161343 | 66 | 254 | 3.5 | 3.5 | 0.00 | 0.00 | 0.00 | 40 | 1015.4 |
| 20260508160840 | 67 | 311 | 3.5 | 6.1 | 0.00 | 0.00 | 0.00 | 41 | 1015.5 |
| 20260508160339 | 66 | 296 | 3.5 | 9.6 | 0.00 | 0.00 | 0.00 | 45 | 1015.6 |
| 20260508155835 | 66 | 317 | 2.6 | 5.2 | 0.00 | 0.00 | 0.00 | 43 | 1015.5 |
| 20260508155332 | 66 | 293 | 1.7 | 3.5 | 0.00 | 0.00 | 0.00 | 46 | 1015.5 |
| 20260508154828 | 66 | 277 | 3.5 | 3.5 | 0.00 | 0.00 | 0.00 | 46 | 1015.8 |
| 20260508154326 | 65 | 301 | 3.5 | 5.2 | 0.00 | 0.00 | 0.00 | 40 | 1015.7 |
| 20260508153822 | 65 | 316 | 4.3 | 8.7 | 0.00 | 0.00 | 0.00 | 40 | 1015.7 |
| 20260508153321 | 66 | 246 | 4.3 | 7.8 | 0.00 | 0.00 | 0.00 | 42 | 1015.7 |
| 20260508152815 | 65 | 273 | 0.9 | 3.5 | 0.00 | 0.00 | 0.00 | 46 | 1015.8 |
| 20260508152312 | 65 | 297 | 3.5 | 5.2 | 0.00 | 0.00 | 0.00 | 42 | 1016.0 |
| 20260508151808 | 65 | 348 | 3.5 | 5.2 | 0.00 | 0.00 | 0.00 | 41 | 1015.8 |
| 20260508151305 | 64 | 271 | 1.7 | 6.1 | 0.00 | 0.00 | 0.00 | 39 | 1015.9 |
| 20260508150802 | 64 | 319 | 3.5 | 6.1 | 0.00 | 0.00 | 0.00 | 49 | 1016.2 |
| 20260508150259 | 64 | 293 | 1.7 | 7.0 | 0.00 | 0.00 | 0.00 | 48 | 1016.2 |
| 20260508145755 | 64 | 289 | 3.5 | 3.5 | 0.00 | 0.00 | 0.00 | 49 | 1016.0 |
| 20260508145251 | 64 | 271 | 1.7 | 5.2 | 0.00 | 0.00 | 0.00 | 48 | 1016.0 |
| 20260508144748 | 63 | 299 | 2.6 | 5.2 | 0.00 | 0.00 | 0.00 | 47 | 1016.2 |
| 20260508144246 | 63 | 327 | 4.3 | 8.7 | 0.00 | 0.00 | 0.00 | 45 | 1016.2 |
| 20260508143743 | 63 | 271 | 3.5 | 5.2 | 0.00 | 0.00 | 0.00 | 43 | 1016.0 |
| 20260508143240 | 63 | 299 | 4.3 | 7.0 | 0.00 | 0.00 | 0.00 | 43 | 1016.2 |
| 20260508142736 | 62 | 318 | 2.6 | 6.1 | 0.00 | 0.00 | 0.00 | 46 | 1016.0 |
| 20260508142233 | 61 | 323 | 2.6 | 7.8 | 0.00 | 0.00 | 0.00 | 49 | 1016.1 |
| 20260508141730 | 61 | 299 | 1.7 | 6.1 | 0.00 | 0.00 | 0.00 | 47 | 1016.1 |
| 20260508141228 | 60 | 346 | 3.5 | 5.2 | 0.00 | 0.00 | 0.00 | 47 | 1016.4 |
| 20260508140725 | 60 | 310 | 2.6 | 3.5 | 0.00 | 0.00 | 0.00 | 49 | 1016.3 |
| 20260508140221 | 61 | 303 | 4.3 | 6.1 | 0.00 | 0.00 | 0.00 | 46 | 1016.2 |
| 20260508135718 | 60 | 314 | 1.7 | 5.2 | 0.00 | 0.00 | 0.00 | 51 | 1016.1 |
| 20260508135213 | 59 | 237 | 3.5 | 3.5 | 0.00 | 0.00 | 0.00 | 50 | 1016.2 |
| 20260508134709 | 59 | 308 | 3.5 | 3.5 | 0.00 | 0.00 | 0.00 | 51 | 1016.0 |
| 20260508134207 | 59 | 264 | 5.2 | 7.0 | 0.00 | 0.00 | 0.00 | 49 | 1016.1 |
| 20260508133703 | 59 | 282 | 2.6 | 5.2 | 0.00 | 0.00 | 0.00 | 50 | 1016.1 |
| 20260508133201 | 58 | 326 | 3.5 | 6.1 | 0.00 | 0.00 | 0.00 | 54 | 1016.1 |
| 20260508132659 | 57 | 307 | 2.6 | 3.5 | 0.00 | 0.00 | 0.00 | 54 | 1015.9 |
| 20260508132156 | 57 | 290 | 1.7 | 5.2 | 0.00 | 0.00 | 0.00 | 52 | 1016.3 |
| 20260508131651 | 56 | 318 | 1.7 | 2.6 | 0.00 | 0.00 | 0.00 | 53 | 1016.2 |
| 20260508131148 | 56 | 304 | 5.2 | 6.1 | 0.00 | 0.00 | 0.00 | 56 | 1016.2 |
| 20260508130644 | 56 | 309 | 1.7 | 3.5 | 0.00 | 0.00 | 0.00 | 53 | 1015.9 |
| 20260508130142 | 56 | 254 | 2.6 | 3.5 | 0.00 | 0.00 | 0.00 | 59 | 1016.1 |
| 20260508125637 | 56 | 283 | 1.7 | 6.1 | 0.00 | 0.00 | 0.00 | 57 | 1016.2 |
| 20260508125134 | 55 | 292 | 1.7 | 2.6 | 0.00 | 0.00 | 0.00 | 62 | 1016.1 |
| 20260508124632 | 55 | 287 | 0.9 | 1.7 | 0.00 | 0.00 | 0.00 | 60 | 1015.8 |
| 20260508124129 | 54 | 312 | 2.6 | 2.6 | 0.00 | 0.00 | 0.00 | 60 | 1016.0 |
| 20260508123627 | 54 | 253 | 0.9 | 2.6 | 0.00 | 0.00 | 0.00 | 62 | 1016.1 |
| 20260508123125 | 53 | 255 | 1.7 | 2.6 | 0.00 | 0.00 | 0.00 | 65 | 1016.1 |
| 20260508122620 | 52 | 271 | 0.9 | 2.6 | 0.00 | 0.00 | 0.00 | 67 | 1016.1 |
| 20260508122118 | 51 | 250 | 1.7 | 3.5 | 0.00 | 0.00 | 0.00 | 68 | 1016.0 |
| 20260508121616 | 51 | 259 | 1.7 | 2.6 | 0.00 | 0.00 | 0.00 | 68 | 1015.8 |
| 20260508121114 | 50 | 251 | 0.9 | 1.7 | 0.00 | 0.00 | 0.00 | 72 | 1015.8 |
| 20260508120611 | 49 | 261 | 2.6 | 2.6 | 0.00 | 0.00 | 0.00 | 70 | 1016.0 |
| 20260508120109 | 48 | 300 | 1.7 | 1.7 | 0.00 | 0.00 | 0.00 | 73 | 1015.9 |
| 20260508115606 | 48 | 253 | 1.7 | 1.7 | 0.00 | 0.00 | 0.00 | 72 | 1016.0 |
| 20260508115103 | 47 | 258 | 1.7 | 1.7 | 0.00 | 0.00 | 0.00 | 74 | 1015.8 |
| 20260508114600 | 47 | 262 | 0.9 | 3.5 | 0.00 | 0.00 | 0.00 | 74 | 1016.0 |
| 20260508114056 | 46 | 256 | 0.9 | 1.7 | 0.00 | 0.00 | 0.00 | 74 | 1015.7 |
| 20260508113554 | 46 | 265 | 1.7 | 2.6 | 0.00 | 0.00 | 0.00 | 74 | 1015.5 |
| 20260508113052 | 45 | 255 | 1.7 | 1.7 | 0.00 | 0.00 | 0.00 | 75 | 1015.5 |
| 20260508112547 | 45 | 254 | 0.9 | 0.9 | 0.00 | 0.00 | 0.00 | 77 | 1015.5 |
| 20260508112045 | 45 | 255 | 0.0 | 0.0 | 0.00 | 0.00 | 0.00 | 77 | 1015.6 |
| 20260508111542 | 43 | 255 | 0.0 | 0.0 | 0.00 | 0.00 | 0.00 | 78 | 1015.6 |
| 20260508111038 | 42 | 255 | 0.0 | 0.0 | 0.00 | 0.00 | 0.00 | 80 | 1015.7 |
| 20260508110537 | 42 | 255 | 0.0 | 0.9 | 0.00 | 0.00 | 0.00 | 81 | 1015.5 |
| 20260508110032 | 41 | 254 | 0.0 | 0.0 | 0.00 | 0.00 | 0.00 | 84 | 1015.4 |
| 20260508105527 | 40 | 254 | 0.0 | 0.0 | 0.00 | 0.00 | 0.00 | 85 | 1015.3 |
| 20260508105025 | 39 | 254 | 0.0 | 0.0 | 0.00 | 0.00 | 0.00 | 87 | 1015.2 |
| 20260508104523 | 39 | 254 | 0.0 | 0.0 | 0.00 | 0.00 | 0.00 | 87 | 1015.2 |
| 20260508104019 | 39 | 254 | 0.0 | 0.0 | 0.00 | 0.00 | 0.00 | 87 | 1015.5 |
| 20260508103516 | 39 | 254 | 0.0 | 0.0 | 0.00 | 0.00 | 0.00 | 85 | 1015.3 |
| 20260508103013 | 40 | 254 | 0.0 | 0.0 | 0.00 | 0.00 | 0.00 | 84 | 1015.0 |
| 20260508102511 | 40 | 254 | 0.0 | 0.0 | 0.00 | 0.00 | 0.00 | 83 | 1015.2 |
| 20260508102008 | 40 | 254 | 0.9 | 0.0 | 0.00 | 0.00 | 0.00 | 83 | 1015.1 |
| 20260508101506 | 40 | 254 | 0.0 | 0.0 | 0.00 | 0.00 | 0.00 | 83 | 1015.3 |
| 20260508101002 | 41 | 254 | 0.9 | 0.9 | 0.00 | 0.00 | 0.00 | 83 | 1014.8 |
| 20260508100501 | 41 | 253 | 0.0 | 0.0 | 0.00 | 0.00 | 0.00 | 83 | 1014.9 |
| 20260508095957 | 41 | 253 | 0.9 | 1.7 | 0.00 | 0.00 | 0.00 | 83 | 1015.0 |
| 20260508095455 | 41 | 252 | 0.0 | 0.9 | 0.00 | 0.00 | 0.00 | 83 | 1014.9 |
| 20260508094951 | 41 | 252 | 0.9 | 0.9 | 0.00 | 0.00 | 0.00 | 83 | 1014.9 |
| 20260508094448 | 41 | 257 | 0.9 | 1.7 | 0.00 | 0.00 | 0.00 | 83 | 1015.1 |
| 20260508093945 | 41 | 262 | 0.0 | 1.7 | 0.00 | 0.00 | 0.00 | 85 | 1015.3 |
| 20260508093442 | 40 | 259 | 0.9 | 0.9 | 0.00 | 0.00 | 0.00 | 87 | 1015.1 |
| 20260508092940 | 40 | 259 | 0.0 | 0.0 | 0.00 | 0.00 | 0.00 | 86 | 1015.0 |
| 20260508092437 | 40 | 258 | 0.0 | 0.9 | 0.00 | 0.00 | 0.00 | 86 | 1015.3 |
| 20260508091936 | 40 | 258 | 0.9 | 0.9 | 0.00 | 0.00 | 0.00 | 87 | 1015.0 |
| 20260508091432 | 40 | 258 | 0.0 | 0.0 | 0.00 | 0.00 | 0.00 | 89 | 1015.1 |
| 20260508090929 | 40 | 258 | 0.0 | 0.0 | 0.00 | 0.00 | 0.00 | 88 | 1015.1 |
| 20260508090428 | 40 | 258 | 0.0 | 0.0 | 0.00 | 0.00 | 0.00 | 88 | 1015.4 |
| 20260508085923 | 39 | 258 | 0.0 | 0.0 | 0.00 | 0.00 | 0.00 | 88 | 1015.0 |
| 20260508085420 | 39 | 258 | 0.9 | 0.9 | 0.00 | 0.00 | 0.00 | 88 | 1015.0 |
| 20260508084917 | 39 | 258 | 0.0 | 0.0 | 0.00 | 0.00 | 0.00 | 88 | 1015.1 |
| 20260508084414 | 40 | 258 | 0.0 | 0.0 | 0.00 | 0.00 | 0.00 | 88 | 1015.4 |
| 20260508083912 | 40 | 258 | 0.0 | 0.0 | 0.00 | 0.00 | 0.00 | 87 | 1015.3 |
| 20260508083409 | 40 | 258 | 0.0 | 0.9 | 0.00 | 0.00 | 0.00 | 87 | 1015.2 |
| 20260508082908 | 40 | 258 | 0.9 | 0.9 | 0.00 | 0.00 | 0.00 | 88 | 1015.3 |
| 20260508082406 | 40 | 258 | 0.0 | 0.9 | 0.00 | 0.00 | 0.00 | 88 | 1015.3 |
| 20260508081904 | 39 | 260 | 0.9 | 0.9 | 0.00 | 0.00 | 0.00 | 90 | 1015.4 |
| 20260508081400 | 40 | 260 | 0.0 | 0.0 | 0.00 | 0.00 | 0.00 | 89 | 1015.1 |
| 20260508080857 | 40 | 260 | 0.0 | 0.9 | 0.00 | 0.00 | 0.00 | 89 | 1015.1 |
| 20260508080355 | 39 | 256 | 0.9 | 0.9 | 0.00 | 0.00 | 0.00 | 91 | 1015.2 |
| 20260508075851 | 39 | 10 | 0.0 | 0.0 | 0.00 | 0.00 | 0.00 | 93 | 1015.1 |
| 20260508075348 | 38 | 11 | 0.0 | 0.0 | 0.00 | 0.00 | 0.00 | 93 | 1015.2 |
| 20260508074846 | 38 | 11 | 0.0 | 0.0 | 0.00 | 0.00 | 0.00 | 93 | 1015.1 |
| 20260508074343 | 38 | 11 | 0.0 | 0.0 | 0.00 | 0.00 | 0.00 | 92 | 1015.1 |
| 20260508073840 | 38 | 11 | 0.0 | 0.0 | 0.00 | 0.00 | 0.00 | 91 | 1015.0 |
| 20260508073338 | 38 | 11 | 0.0 | 0.0 | 0.00 | 0.00 | 0.00 | 91 | 1015.3 |
| 20260508072834 | 39 | 11 | 0.0 | 0.0 | 0.00 | 0.00 | 0.00 | 93 | 1015.1 |
| 20260508072331 | 38 | 11 | 0.0 | 0.0 | 0.00 | 0.00 | 0.00 | 93 | 1015.2 |
| 20260508071828 | 38 | 11 | 0.0 | 0.0 | 0.00 | 0.00 | 0.00 | 93 | 1015.1 |
| 20260508071326 | 38 | 11 | 0.0 | 0.0 | 0.00 | 0.00 | 0.00 | 92 | 1015.3 |
| 20260508070823 | 38 | 11 | 0.0 | 0.0 | 0.00 | 0.00 | 0.00 | 93 | 1015.3 |
| 20260508070322 | 38 | 11 | 0.0 | 0.0 | 0.00 | 0.00 | 0.00 | 92 | 1015.3 |
| 20260508065819 | 38 | 11 | 0.0 | 0.0 | 0.00 | 0.00 | 0.00 | 92 | 1015.3 |
| 20260508065317 | 39 | 11 | 0.0 | 0.0 | 0.00 | 0.00 | 0.00 | 92 | 1015.2 |
| 20260508064815 | 39 | 11 | 0.0 | 0.0 | 0.00 | 0.00 | 0.00 | 93 | 1015.1 |
| 20260508064312 | 39 | 11 | 0.0 | 0.0 | 0.00 | 0.00 | 0.00 | 94 | 1015.1 |
| 20260508063809 | 39 | 11 | 0.0 | 0.0 | 0.00 | 0.00 | 0.00 | 94 | 1015.2 |
| 20260508063307 | 39 | 11 | 0.0 | 0.0 | 0.00 | 0.00 | 0.00 | 94 | 1015.3 |
| 20260508062804 | 39 | 11 | 0.0 | 0.0 | 0.00 | 0.00 | 0.00 | 93 | 1015.4 |
| 20260508062305 | 39 | 11 | 0.0 | 0.9 | 0.00 | 0.00 | 0.00 | 93 | 1015.1 |
| 20260508061758 | 39 | 11 | 0.0 | 0.0 | 0.00 | 0.00 | 0.00 | 92 | 1015.3 |
| 20260508061255 | 39 | 11 | 0.0 | 0.0 | 0.00 | 0.00 | 0.00 | 92 | 1015.2 |
| 20260508060752 | 39 | 11 | 0.0 | 0.0 | 0.00 | 0.00 | 0.00 | 92 | 1015.2 |
| 20260508060250 | 39 | 11 | 0.0 | 0.0 | 0.00 | 0.00 | 0.00 | 93 | 1015.4 |
| 20260508055745 | 39 | 11 | 0.0 | 0.0 | 0.00 | 0.00 | 0.00 | 93 | 1015.5 |
| 20260508055243 | 39 | 11 | 0.0 | 0.0 | 0.00 | 0.00 | 0.00 | 92 | 1015.5 |
| 20260508054739 | 39 | 11 | 0.0 | 0.0 | 0.00 | 0.00 | 0.00 | 91 | 1015.7 |
| 20260508054237 | 40 | 11 | 0.0 | 0.0 | 0.00 | 0.00 | 0.00 | 90 | 1015.7 |
| 20260508053734 | 40 | 11 | 0.0 | 0.0 | 0.00 | 0.00 | 0.00 | 90 | 1015.6 |
| 20260508053231 | 40 | 11 | 0.0 | 0.0 | 0.00 | 0.00 | 0.00 | 92 | 1015.5 |
| 20260508052728 | 40 | 11 | 0.0 | 0.0 | 0.00 | 0.00 | 0.00 | 93 | 1015.5 |
| 20260508052225 | 40 | 11 | 0.0 | 0.0 | 0.00 | 0.00 | 0.00 | 93 | 1015.5 |
| 20260508051721 | 40 | 11 | 0.0 | 0.0 | 0.00 | 0.00 | 0.00 | 93 | 1015.7 |
| 20260508051217 | 40 | 11 | 0.0 | 0.0 | 0.00 | 0.00 | 0.00 | 93 | 1015.8 |
| 20260508050713 | 40 | 11 | 0.0 | 0.0 | 0.00 | 0.00 | 0.00 | 93 | 1015.5 |
| 20260508050211 | 40 | 11 | 0.0 | 0.0 | 0.00 | 0.00 | 0.00 | 93 | 1015.7 |
| 20260508045706 | 41 | 11 | 0.0 | 0.0 | 0.00 | 0.00 | 0.00 | 93 | 1015.3 |
| 20260508045204 | 41 | 11 | 0.0 | 0.0 | 0.00 | 0.00 | 0.00 | 93 | 1015.5 |
| 20260508044702 | 41 | 11 | 0.0 | 0.0 | 0.00 | 0.00 | 0.00 | 92 | 1015.4 |
| 20260508044158 | 41 | 11 | 0.0 | 0.0 | 0.00 | 0.00 | 0.00 | 92 | 1015.5 |
| 20260508043653 | 41 | 11 | 0.9 | 0.9 | 0.00 | 0.00 | 0.00 | 92 | 1015.5 |
| 20260508043152 | 41 | 11 | 0.0 | 0.0 | 0.00 | 0.00 | 0.00 | 90 | 1015.4 |
| 20260508042648 | 41 | 11 | 0.0 | 0.0 | 0.00 | 0.00 | 0.00 | 90 | 1015.5 |
| 20260508042145 | 41 | 11 | 0.0 | 0.0 | 0.00 | 0.00 | 0.00 | 92 | 1015.4 |
| 20260508041642 | 40 | 11 | 0.0 | 0.0 | 0.00 | 0.00 | 0.00 | 93 | 1015.7 |
| 20260508041138 | 40 | 11 | 0.0 | 0.0 | 0.00 | 0.00 | 0.00 | 92 | 1015.5 |
| 20260508040635 | 40 | 11 | 0.0 | 0.0 | 0.00 | 0.00 | 0.00 | 91 | 1015.4 |
| 20260508040133 | 41 | 11 | 0.0 | 0.0 | 0.00 | 0.00 | 0.00 | 91 | 1015.3 |
| 20260508035630 | 41 | 11 | 0.0 | 0.0 | 0.00 | 0.00 | 0.00 | 91 | 1015.5 |
| 20260508035127 | 41 | 11 | 0.0 | 0.0 | 0.00 | 0.00 | 0.00 | 90 | 1015.5 |
| 20260508034624 | 41 | 11 | 0.0 | 0.0 | 0.00 | 0.00 | 0.00 | 90 | 1015.7 |
| 20260508034121 | 41 | 11 | 0.0 | 0.0 | 0.00 | 0.00 | 0.00 | 89 | 1015.4 |
| 20260508033618 | 41 | 11 | 0.0 | 0.0 | 0.00 | 0.00 | 0.00 | 88 | 1015.6 |
| 20260508033117 | 42 | 11 | 0.0 | 0.0 | 0.00 | 0.00 | 0.00 | 87 | 1015.7 |
| 20260508032613 | 42 | 11 | 0.0 | 0.0 | 0.00 | 0.00 | 0.00 | 88 | 1015.7 |
| 20260508032110 | 42 | 11 | 0.0 | 0.0 | 0.00 | 0.00 | 0.00 | 85 | 1015.6 |
| 20260508031607 | 42 | 11 | 0.0 | 0.0 | 0.00 | 0.00 | 0.00 | 85 | 1015.5 |
| 20260508031103 | 42 | 11 | 0.0 | 0.0 | 0.00 | 0.00 | 0.00 | 85 | 1015.6 |
| 20260508030559 | 42 | 11 | 0.0 | 0.0 | 0.00 | 0.00 | 0.00 | 82 | 1015.8 |
| 20260508030058 | 43 | 11 | 0.0 | 0.0 | 0.00 | 0.00 | 0.00 | 83 | 1015.8 |
| 20260508025553 | 43 | 11 | 0.0 | 0.0 | 0.00 | 0.00 | 0.00 | 80 | 1015.6 |
| 20260508025051 | 44 | 11 | 0.0 | 0.0 | 0.00 | 0.00 | 0.00 | 80 | 1015.6 |
| 20260508024547 | 43 | 11 | 0.0 | 0.0 | 0.00 | 0.00 | 0.00 | 79 | 1015.4 |
| 20260508024044 | 43 | 11 | 0.0 | 0.0 | 0.00 | 0.00 | 0.00 | 77 | 1015.5 |
| 20260508023540 | 44 | 10 | 0.0 | 0.0 | 0.00 | 0.00 | 0.00 | 76 | 1015.3 |
| 20260508023038 | 44 | 11 | 0.0 | 0.0 | 0.00 | 0.00 | 0.00 | 74 | 1015.3 |
| 20260508022533 | 44 | 10 | 0.0 | 0.0 | 0.00 | 0.00 | 0.00 | 76 | 1015.4 |